createdAt,value
2024-03-01T00:01:55.032Z,38.25
2024-03-01T00:04:22.772Z,38.61
2024-03-01T00:06:50.510Z,38.06
2024-03-01T00:09:18.956Z,38.38
2024-03-01T00:11:46.670Z,38.31
2024-03-01T00:14:14.003Z,36.99
2024-03-01T00:16:41.596Z,37.78
2024-03-01T00:19:10.672Z,37.48
2024-03-01T00:21:38.281Z,38.52
2024-03-01T00:24:06.708Z,38.02
2024-03-01T00:26:34.429Z,38.38
2024-03-01T00:29:01.763Z,37.38
2024-03-01T00:31:31.069Z,36.98
2024-03-01T00:33:58.790Z,38.18
2024-03-01T00:36:27.926Z,37.10
2024-03-01T00:38:55.455Z,37.09
2024-03-01T00:41:23.063Z,37.37
2024-03-01T00:43:51.184Z,37.10
2024-03-01T00:46:18.873Z,37.10
2024-03-01T00:48:46.291Z,38.53
2024-03-01T00:51:13.882Z,37.33
2024-03-01T00:53:42.869Z,38.51
2024-03-01T00:56:12.458Z,37.59
2024-03-01T00:58:40.169Z,37.90
2024-03-01T01:01:07.864Z,37.01
2024-03-01T01:03:35.317Z,37.62
2024-03-01T01:06:03.089Z,38.64
2024-03-01T01:08:30.784Z,37.53
2024-03-01T01:10:59.674Z,37.48
2024-03-01T01:13:28.695Z,38.14
2024-03-01T01:15:56.496Z,36.77
2024-03-01T01:18:24.124Z,37.19
2024-03-01T01:20:51.777Z,37.32
2024-03-01T01:23:19.277Z,38.43
2024-03-01T01:25:46.935Z,37.80
2024-03-01T01:28:15.916Z,36.65
2024-03-01T01:30:46.881Z,37.04
2024-03-01T01:33:14.907Z,37.02
2024-03-01T01:35:42.791Z,38.60
2024-03-01T01:38:10.564Z,38.10
2024-03-01T01:40:38.716Z,37.01
2024-03-01T01:43:07.319Z,37.16
2024-03-01T01:45:36.573Z,36.84
2024-03-01T01:48:06.069Z,36.51
2024-03-01T01:50:34.395Z,36.47
2024-03-01T01:53:10.071Z,36.94
2024-03-01T01:55:45.335Z,37.50
2024-03-01T01:58:13.116Z,36.52
2024-03-01T02:00:44.082Z,37.51
2024-03-01T02:03:12.000Z,38.13
2024-03-01T02:05:41.341Z,36.51
2024-03-01T02:08:08.985Z,37.54
2024-03-01T02:10:37.837Z,38.04
2024-03-01T02:13:05.684Z,37.59
2024-03-01T02:15:33.432Z,38.41
2024-03-01T02:18:02.513Z,36.47
2024-03-01T02:20:32.385Z,37.74
2024-03-01T02:23:05.398Z,36.91
2024-03-01T02:25:34.568Z,36.63
2024-03-01T02:28:03.147Z,37.74
2024-03-01T02:30:30.828Z,37.79
2024-03-01T02:32:58.289Z,38.20
2024-03-01T02:35:25.917Z,37.78
2024-03-01T02:37:53.373Z,37.41
2024-03-01T02:40:21.185Z,36.85
2024-03-01T02:42:50.316Z,36.66
2024-03-01T02:45:18.219Z,36.44
2024-03-01T02:47:45.817Z,38.30
2024-03-01T02:50:13.262Z,37.72
2024-03-01T02:52:41.938Z,36.61
2024-03-01T02:55:09.908Z,36.51
2024-03-01T02:57:37.875Z,36.67
2024-03-01T03:00:12.426Z,37.66
2024-03-01T03:02:40.111Z,37.79
2024-03-01T03:05:08.217Z,37.81
2024-03-01T03:07:36.030Z,36.82
2024-03-01T03:10:04.453Z,37.29
2024-03-01T03:12:32.024Z,36.85
2024-03-01T03:15:02.378Z,38.14
2024-03-01T03:17:31.767Z,37.64
2024-03-01T03:19:59.390Z,37.85
2024-03-01T03:22:27.014Z,36.40
2024-03-01T03:24:54.682Z,37.96
2024-03-01T03:27:22.131Z,36.73
2024-03-01T03:29:49.702Z,38.16
2024-03-01T03:32:17.257Z,37.86
2024-03-01T03:34:46.270Z,36.62
2024-03-01T03:37:13.911Z,38.17
2024-03-01T03:39:41.594Z,36.63
2024-03-01T03:42:09.077Z,36.93
2024-03-01T03:44:37.086Z,37.17
2024-03-01T03:47:04.970Z,37.25
2024-03-01T03:49:32.533Z,37.83
2024-03-01T03:52:01.655Z,37.85
2024-03-01T03:54:29.388Z,37.22
2024-03-01T03:56:56.773Z,37.59
2024-03-01T03:59:24.874Z,36.68
2024-03-01T04:01:52.718Z,37.43
2024-03-01T04:04:20.458Z,36.22
2024-03-01T04:06:47.906Z,37.97
2024-03-01T04:09:18.248Z,36.87
2024-03-01T04:11:45.878Z,37.20
2024-03-01T04:14:13.988Z,37.85
2024-03-01T04:16:41.868Z,37.84
2024-03-01T04:19:10.393Z,37.52
2024-03-01T04:21:38.664Z,37.29
2024-03-01T04:24:10.036Z,37.09
2024-03-01T04:26:39.850Z,36.63
2024-03-01T04:29:07.623Z,37.83
2024-03-01T04:31:37.335Z,36.80
2024-03-01T04:34:07.502Z,36.89
2024-03-01T04:36:35.558Z,36.13
2024-03-01T04:39:07.267Z,37.88
2024-03-01T04:41:35.081Z,37.94
2024-03-01T04:44:03.919Z,36.55
2024-03-01T04:46:31.701Z,36.35
2024-03-01T04:48:59.461Z,36.54
2024-03-01T04:51:30.129Z,37.42
2024-03-01T04:53:57.770Z,37.60
2024-03-01T04:56:25.247Z,37.12
2024-03-01T04:58:52.913Z,36.92
2024-03-01T05:01:22.870Z,36.27
2024-03-01T05:03:51.403Z,36.24
2024-03-01T05:06:19.075Z,36.89
2024-03-01T05:08:47.756Z,36.83
2024-03-01T05:11:15.954Z,37.04
2024-03-01T05:13:43.611Z,38.21
2024-03-01T05:16:11.316Z,36.97
2024-03-01T05:18:40.790Z,35.68
2024-03-01T05:21:10.224Z,36.43
2024-03-01T05:23:37.916Z,35.35
2024-03-01T05:26:05.310Z,35.85
2024-03-01T05:28:33.070Z,34.87
2024-03-01T05:31:07.329Z,35.61
2024-03-01T05:33:46.395Z,35.02
2024-03-01T05:36:13.917Z,35.01
2024-03-01T05:38:42.710Z,35.91
2024-03-01T05:41:10.488Z,36.31
2024-03-01T05:43:38.085Z,36.17
2024-03-01T05:46:12.430Z,34.55
2024-03-01T05:48:40.201Z,34.54
2024-03-01T05:51:12.404Z,34.86
2024-03-01T05:53:43.427Z,35.77
2024-03-01T05:56:19.045Z,35.24
2024-03-01T05:58:47.580Z,35.85
2024-03-01T06:01:18.454Z,35.15
2024-03-01T06:03:46.465Z,34.73
2024-03-01T06:06:16.673Z,34.64
2024-03-01T06:08:44.389Z,34.34
2024-03-01T06:11:12.180Z,34.13
2024-03-01T06:13:40.637Z,34.07
2024-03-01T06:16:08.746Z,34.30
2024-03-01T06:18:36.613Z,33.72
2024-03-01T06:21:04.676Z,34.86
2024-03-01T06:23:33.615Z,33.54
2024-03-01T06:26:01.160Z,34.93
2024-03-01T06:28:28.513Z,34.39
2024-03-01T06:30:56.095Z,35.07
2024-03-01T06:33:23.600Z,34.63
2024-03-01T06:35:51.350Z,35.31
2024-03-01T06:38:18.919Z,34.96
2024-03-01T06:40:47.951Z,35.45
2024-03-01T06:43:16.033Z,36.01
2024-03-01T06:45:44.026Z,35.22
2024-03-01T06:48:16.427Z,35.66
2024-03-01T06:50:46.029Z,35.34
2024-03-01T06:53:13.710Z,35.23
2024-03-01T06:55:41.364Z,35.75
2024-03-01T06:58:10.487Z,36.01
2024-03-01T07:00:38.182Z,35.62
2024-03-01T07:03:05.787Z,36.08
2024-03-01T07:05:33.588Z,35.24
2024-03-01T07:08:01.323Z,34.60
2024-03-01T07:10:29.167Z,35.68
2024-03-01T07:12:57.349Z,34.95
2024-03-01T07:15:28.334Z,35.90
2024-03-01T07:17:56.909Z,35.87
2024-03-01T07:20:25.171Z,35.57
2024-03-01T07:22:52.753Z,36.15
2024-03-01T07:25:20.356Z,35.46
2024-03-01T07:27:47.713Z,36.44
2024-03-01T07:30:16.293Z,36.48
2024-03-01T07:32:45.350Z,36.14
2024-03-01T07:35:13.020Z,35.47
2024-03-01T07:37:40.743Z,36.66
2024-03-01T07:40:09.661Z,35.93
2024-03-01T07:42:37.344Z,35.17
2024-03-01T07:45:06.344Z,36.29
2024-03-01T07:47:35.044Z,36.16
2024-03-01T07:50:04.638Z,35.44
2024-03-01T07:52:32.562Z,36.10
2024-03-01T07:55:00.887Z,36.23
2024-03-01T07:57:28.435Z,35.17
2024-03-01T07:59:55.837Z,35.30
2024-03-01T08:02:23.415Z,36.39
2024-03-01T08:04:51.381Z,34.76
2024-03-01T08:07:20.525Z,35.44
2024-03-01T08:09:49.466Z,35.72
2024-03-01T08:12:19.878Z,35.45
2024-03-01T08:14:47.574Z,36.12
2024-03-01T08:17:15.119Z,35.80
2024-03-01T08:19:45.958Z,36.29
2024-03-01T08:22:16.106Z,35.60
2024-03-01T08:24:47.435Z,36.44
2024-03-01T08:27:17.226Z,36.07
2024-03-01T08:29:44.915Z,35.80
2024-03-01T08:32:27.732Z,35.71
2024-03-01T08:34:57.148Z,36.24
2024-03-01T08:37:26.875Z,36.46
2024-03-01T08:39:57.209Z,36.09
2024-03-01T08:42:25.831Z,35.82
2024-03-01T08:45:01.077Z,36.56
2024-03-01T08:47:32.448Z,37.18
2024-03-01T08:50:37.418Z,36.35
2024-03-01T08:53:49.308Z,36.72
2024-03-01T08:56:21.644Z,37.03
2024-03-01T08:58:50.375Z,36.95
2024-03-01T09:01:47.418Z,36.65
2024-03-01T09:04:22.794Z,37.06
2024-03-01T09:07:04.858Z,36.35
2024-03-01T09:09:32.446Z,37.10
2024-03-01T09:12:01.233Z,36.63
2024-03-01T09:14:32.228Z,37.05
2024-03-01T09:17:01.441Z,37.38
2024-03-01T09:19:36.455Z,36.85
2024-03-01T09:22:05.588Z,36.58
2024-03-01T09:24:39.043Z,36.51
2024-03-01T09:27:21.330Z,36.89
2024-03-01T09:29:49.126Z,36.08
2024-03-01T09:32:17.452Z,35.81
2024-03-01T09:34:46.938Z,36.45
2024-03-01T09:37:16.858Z,36.31
2024-03-01T09:39:44.916Z,35.01
2024-03-01T09:42:33.679Z,35.30
2024-03-01T09:45:20.688Z,35.81
2024-03-01T09:48:06.580Z,36.48
2024-03-01T09:50:49.542Z,36.04
2024-03-01T09:53:33.413Z,36.96
2024-03-01T09:56:10.568Z,37.27
2024-03-01T09:58:46.232Z,37.18
2024-03-01T10:01:18.804Z,37.49
2024-03-01T10:03:55.774Z,36.65
2024-03-01T10:09:13.136Z,37.61
2024-03-01T10:11:52.724Z,37.92
2024-03-01T10:14:33.552Z,38.13
2024-03-01T10:17:11.106Z,37.26
2024-03-01T10:19:59.838Z,36.92
2024-03-01T10:22:38.857Z,36.62
2024-03-01T10:25:17.710Z,36.90
2024-03-01T10:27:52.424Z,37.21
2024-03-01T10:30:24.709Z,37.54
2024-03-01T10:33:13.810Z,36.71
2024-03-01T10:35:48.543Z,36.50
2024-03-01T10:38:27.259Z,37.62
2024-03-01T10:41:06.798Z,37.12
2024-03-01T10:43:48.836Z,37.82
2024-03-01T10:46:25.395Z,37.37
2024-03-01T10:49:03.578Z,37.26
2024-03-01T10:51:33.991Z,36.41
2024-03-01T10:54:06.412Z,37.97
2024-03-01T10:56:34.715Z,37.15
2024-03-01T10:59:06.585Z,37.76
2024-03-01T11:01:47.670Z,36.40
2024-03-01T11:04:22.352Z,37.54
2024-03-01T11:06:59.441Z,36.90
2024-03-01T11:09:34.890Z,37.07
2024-03-01T11:12:08.211Z,36.17
2024-03-01T11:14:41.482Z,37.13
2024-03-01T11:17:12.036Z,35.79
2024-03-01T11:19:43.281Z,36.44
2024-03-01T11:22:20.687Z,37.98
2024-03-01T11:24:55.974Z,36.73
2024-03-01T11:27:27.058Z,36.81
2024-03-01T11:30:05.460Z,37.33
2024-03-01T11:32:41.815Z,37.59
2024-03-01T11:35:15.619Z,37.57
2024-03-01T11:37:58.283Z,36.91
2024-03-01T11:40:38.052Z,37.88
2024-03-01T11:43:22.075Z,37.33
2024-03-01T11:46:07.990Z,37.08
2024-03-01T11:49:01.440Z,37.50
2024-03-01T11:51:38.717Z,36.67
2024-03-01T11:54:31.068Z,37.36
2024-03-01T11:57:10.354Z,37.76
2024-03-01T11:59:58.214Z,38.21
2024-03-01T12:02:39.979Z,37.02
2024-03-01T12:05:21.020Z,37.35
2024-03-01T12:08:07.550Z,37.93
2024-03-01T12:10:49.322Z,37.78
2024-03-01T12:13:18.438Z,37.38
2024-03-01T12:15:57.347Z,37.91
2024-03-01T12:18:30.851Z,37.53
2024-03-01T12:21:17.160Z,37.90
2024-03-01T12:23:55.991Z,37.40
2024-03-01T12:26:31.532Z,37.13
2024-03-01T12:29:10.693Z,38.01
2024-03-01T12:32:04.946Z,37.42
2024-03-01T12:34:41.301Z,38.68
2024-03-01T12:37:24.053Z,37.91
2024-03-01T12:40:06.378Z,38.56
2024-03-01T12:42:38.690Z,38.00
2024-03-01T12:45:18.535Z,37.81
2024-03-01T12:48:01.097Z,38.33
2024-03-01T12:50:39.904Z,38.35
2024-03-01T12:53:48.346Z,38.06
2024-03-01T12:56:26.262Z,37.40
2024-03-01T12:59:14.780Z,37.91
2024-03-01T13:01:50.637Z,38.51
2024-03-01T13:04:36.867Z,38.58
2024-03-01T13:07:07.601Z,38.21
2024-03-01T13:09:43.169Z,37.66
2024-03-01T13:12:16.367Z,37.74
2024-03-01T13:14:51.967Z,37.92
2024-03-01T13:17:33.443Z,38.42
2024-03-01T13:20:14.471Z,37.71
2024-03-01T13:22:46.118Z,38.12
2024-03-01T13:25:23.143Z,38.36
2024-03-01T13:28:01.650Z,37.80
2024-03-01T13:30:34.439Z,37.77
2024-03-01T13:33:10.260Z,37.62
2024-03-01T13:35:43.540Z,38.44
2024-03-01T13:38:16.136Z,37.69
2024-03-01T13:40:57.567Z,38.25
2024-03-01T13:43:29.830Z,38.64
2024-03-01T13:46:06.182Z,37.73
2024-03-01T13:51:05.717Z,38.68
2024-03-01T13:53:33.568Z,38.03
2024-03-01T13:56:04.803Z,37.40
2024-03-01T13:58:33.736Z,37.12
2024-03-01T14:01:04.454Z,38.53
2024-03-01T14:03:32.294Z,37.42
2024-03-01T14:06:01.177Z,37.12
2024-03-01T14:08:28.892Z,37.28
2024-03-01T14:10:57.762Z,37.30
2024-03-01T14:13:27.984Z,36.39
2024-03-01T14:15:57.058Z,37.36
2024-03-01T14:18:25.124Z,37.61
2024-03-01T14:20:52.708Z,36.52
2024-03-01T14:23:20.266Z,36.55
2024-03-01T14:25:48.073Z,37.29
2024-03-01T14:28:16.307Z,38.68
2024-03-01T14:30:46.958Z,37.74
2024-03-01T14:33:15.628Z,38.06
2024-03-01T14:35:43.460Z,38.51
2024-03-01T14:38:12.677Z,38.76
2024-03-01T14:40:40.728Z,38.86
2024-03-01T14:43:09.717Z,38.58
2024-03-01T14:45:41.248Z,38.89
2024-03-01T14:48:10.959Z,39.64
2024-03-01T14:50:44.724Z,40.75
2024-03-01T14:53:17.098Z,41.40
2024-03-01T14:55:45.428Z,40.95
2024-03-01T14:58:15.410Z,39.30
2024-03-01T15:00:43.033Z,38.39
2024-03-01T15:03:12.053Z,39.07
2024-03-01T15:05:40.120Z,38.60
2024-03-01T15:08:08.629Z,39.10
2024-03-01T15:10:36.299Z,39.86
2024-03-01T15:13:08.178Z,39.63
2024-03-01T15:15:45.898Z,39.25
2024-03-01T15:18:19.191Z,39.61
2024-03-01T15:20:46.848Z,39.39
2024-03-01T15:23:15.470Z,39.42
2024-03-01T15:25:47.367Z,40.48
2024-03-01T15:28:15.554Z,39.60
2024-03-01T15:30:43.538Z,40.34
2024-03-01T15:33:11.231Z,40.52
2024-03-01T15:35:41.475Z,39.38
2024-03-01T15:38:11.759Z,39.82
2024-03-01T15:40:41.366Z,39.35
2024-03-01T15:43:09.962Z,39.78
2024-03-01T15:45:37.689Z,39.49
2024-03-01T15:48:07.975Z,39.31
2024-03-01T15:50:35.616Z,39.98
2024-03-01T15:53:04.881Z,39.35
2024-03-01T15:55:33.052Z,39.87
2024-03-01T15:58:01.214Z,39.62
2024-03-01T16:00:30.775Z,39.36
2024-03-01T16:02:58.694Z,39.96
2024-03-01T16:05:26.421Z,39.94
2024-03-01T16:07:54.430Z,40.00
2024-03-01T16:10:25.623Z,39.68
2024-03-01T16:12:55.046Z,39.90
2024-03-01T16:15:24.195Z,39.34
2024-03-01T16:17:52.853Z,40.52
2024-03-01T16:20:20.830Z,39.90
2024-03-01T16:22:48.772Z,39.85
2024-03-01T16:25:17.736Z,39.48
2024-03-01T16:27:46.762Z,39.27
2024-03-01T16:30:23.779Z,40.24
2024-03-01T16:32:52.219Z,40.45
2024-03-01T16:35:56.149Z,40.14
2024-03-01T16:38:23.809Z,39.62
2024-03-01T16:40:51.755Z,40.05
2024-03-01T16:43:41.650Z,40.70
2024-03-01T16:46:18.140Z,40.36
2024-03-01T16:48:50.968Z,40.12
2024-03-01T16:51:37.808Z,40.03
2024-03-01T16:54:07.342Z,39.98
2024-03-01T16:56:35.414Z,39.62
2024-03-01T16:59:08.521Z,40.09
2024-03-01T17:01:44.952Z,40.58
2024-03-01T17:04:16.227Z,40.59
2024-03-01T17:06:46.122Z,40.36
2024-03-01T17:09:17.450Z,40.27
2024-03-01T17:11:48.091Z,40.32
2024-03-01T17:14:18.127Z,39.78
2024-03-01T17:16:46.626Z,39.95
2024-03-01T17:19:40.928Z,39.14
2024-03-01T17:22:09.838Z,39.42
2024-03-01T17:24:37.532Z,39.68
2024-03-01T17:27:05.334Z,40.02
2024-03-01T17:29:34.663Z,40.16
2024-03-01T17:32:02.452Z,39.47
2024-03-01T17:34:30.209Z,40.41
2024-03-01T17:36:57.810Z,38.89
2024-03-01T17:39:25.419Z,39.23
2024-03-01T17:41:52.987Z,40.11
2024-03-01T17:44:20.607Z,40.22
2024-03-01T17:46:49.801Z,40.05
2024-03-01T17:49:17.765Z,40.22
2024-03-01T17:51:45.511Z,39.96
2024-03-01T17:54:13.197Z,40.50
2024-03-01T17:56:40.881Z,40.49
2024-03-01T17:59:08.496Z,40.25
2024-03-01T18:01:36.273Z,39.57
2024-03-01T18:04:05.504Z,40.27
2024-03-01T18:06:33.268Z,40.01
2024-03-01T18:09:00.858Z,40.12
2024-03-01T18:11:28.927Z,39.24
2024-03-01T18:13:56.901Z,40.40
2024-03-01T18:16:26.058Z,39.87
2024-03-01T18:18:53.645Z,40.23
2024-03-01T18:21:22.623Z,39.82
2024-03-01T18:23:50.265Z,40.37
2024-03-01T18:26:18.007Z,40.08
2024-03-01T18:28:45.665Z,39.57
2024-03-01T18:31:13.496Z,39.87
2024-03-01T18:33:41.315Z,39.58
2024-03-01T18:36:09.324Z,39.74
2024-03-01T18:38:38.378Z,39.67
2024-03-01T18:41:08.798Z,39.50
2024-03-01T18:43:37.767Z,40.20
2024-03-01T18:46:05.785Z,39.49
2024-03-01T18:48:35.285Z,39.88
2024-03-01T18:51:05.131Z,40.46
2024-03-01T18:53:32.808Z,39.51
2024-03-01T18:56:01.834Z,39.84
2024-03-01T18:58:29.580Z,40.69
2024-03-01T19:01:09.949Z,40.27
2024-03-01T19:03:42.689Z,39.38
2024-03-01T19:06:11.042Z,40.08
2024-03-01T19:08:38.778Z,39.52
2024-03-01T19:11:08.611Z,40.58
2024-03-01T19:13:36.446Z,40.06
2024-03-01T19:16:06.487Z,41.02
2024-03-01T19:18:34.680Z,39.87
2024-03-01T19:21:02.611Z,40.84
2024-03-01T19:23:33.371Z,39.94
2024-03-01T19:26:02.053Z,40.34
2024-03-01T19:28:32.797Z,39.76
2024-03-01T19:31:00.834Z,39.79
2024-03-01T19:33:28.481Z,39.99
2024-03-01T19:35:57.546Z,39.72
2024-03-01T19:38:25.409Z,40.86
2024-03-01T19:40:56.326Z,40.99
2024-03-01T19:43:24.106Z,40.50
2024-03-01T19:45:53.687Z,41.24
2024-03-01T19:48:24.252Z,40.97
2024-03-01T19:50:51.979Z,40.98
2024-03-01T19:53:19.595Z,40.93
2024-03-01T19:55:47.221Z,41.18
2024-03-01T19:58:14.860Z,40.71
2024-03-01T20:00:42.477Z,41.01
2024-03-01T20:03:11.492Z,40.68
2024-03-01T20:05:39.171Z,40.42
2024-03-01T20:08:07.741Z,41.18
2024-03-01T20:10:35.414Z,40.62
2024-03-01T20:13:03.147Z,40.08
2024-03-01T20:15:30.849Z,40.82
2024-03-01T20:17:58.520Z,40.93
2024-03-01T20:20:27.559Z,40.98
2024-03-01T20:22:55.182Z,41.11
2024-03-01T20:25:26.041Z,41.12
2024-03-01T20:27:54.191Z,40.91
2024-03-01T20:30:21.791Z,40.39
2024-03-01T20:32:49.923Z,40.71
2024-03-01T20:35:17.541Z,40.82
2024-03-01T20:37:46.893Z,40.79
2024-03-01T20:40:14.858Z,40.17
2024-03-01T20:42:42.471Z,40.42
2024-03-01T20:45:10.543Z,39.98
2024-03-01T20:47:38.328Z,40.84
2024-03-01T20:50:07.171Z,41.37
2024-03-01T20:52:34.792Z,40.34
2024-03-01T20:55:07.222Z,40.94
2024-03-01T20:57:34.996Z,40.50
2024-03-01T21:00:02.595Z,40.94
2024-03-01T21:02:30.268Z,40.50
2024-03-01T21:04:57.884Z,41.87
2024-03-01T21:07:25.589Z,41.47
2024-03-01T21:09:53.294Z,41.76
2024-03-01T21:12:23.885Z,41.76
2024-03-01T21:14:51.461Z,41.53
2024-03-01T21:17:19.153Z,41.92
2024-03-01T21:19:46.619Z,42.16
2024-03-01T21:24:45.329Z,41.94
2024-03-01T21:27:13.026Z,43.25
2024-03-01T21:29:42.040Z,42.38
2024-03-01T21:32:18.818Z,42.41
2024-03-01T21:34:51.051Z,42.40
2024-03-01T21:37:18.833Z,42.59
2024-03-01T21:39:46.502Z,43.21
2024-03-01T21:42:14.219Z,43.07
2024-03-01T21:44:43.647Z,43.41
2024-03-01T21:47:11.472Z,42.68
2024-03-01T21:49:39.342Z,43.49
2024-03-01T21:52:08.913Z,43.98
2024-03-01T21:54:36.844Z,42.58
2024-03-01T21:57:05.323Z,43.29
2024-03-01T21:59:33.103Z,43.00
2024-03-01T22:02:04.669Z,43.66
2024-03-01T22:04:34.232Z,43.86
2024-03-01T22:07:02.064Z,44.08
2024-03-01T22:09:29.842Z,42.82
2024-03-01T22:11:57.434Z,43.69
2024-03-01T22:14:25.420Z,42.96
2024-03-01T22:16:52.990Z,43.29
2024-03-01T22:19:22.148Z,43.62
2024-03-01T22:21:49.770Z,44.55
2024-03-01T22:24:17.441Z,43.73
2024-03-01T22:26:47.237Z,44.03
2024-03-01T22:29:15.059Z,43.05
2024-03-01T22:31:43.551Z,44.06
2024-03-01T22:34:11.437Z,44.15
2024-03-01T22:36:40.679Z,43.47
2024-03-01T22:39:10.254Z,44.13
2024-03-01T22:41:38.161Z,44.00
2024-03-01T22:44:05.920Z,43.34
2024-03-01T22:46:33.857Z,43.33
2024-03-01T22:49:01.842Z,44.67
2024-03-01T22:51:30.180Z,44.14
2024-03-01T22:53:59.262Z,43.09
2024-03-01T22:56:32.465Z,43.60
2024-03-01T22:59:00.395Z,44.67
2024-03-01T23:01:28.940Z,44.71
2024-03-01T23:03:57.884Z,43.78
2024-03-01T23:06:27.475Z,43.44
2024-03-01T23:08:59.583Z,45.00
2024-03-01T23:11:34.430Z,44.98
2024-03-01T23:14:04.268Z,45.07
2024-03-01T23:16:32.179Z,44.12
2024-03-01T23:18:59.967Z,44.82
2024-03-01T23:21:28.618Z,43.52
2024-03-01T23:23:58.495Z,44.39
2024-03-01T23:26:26.201Z,43.63
2024-03-01T23:28:55.085Z,44.54
2024-03-01T23:31:22.805Z,44.83
2024-03-01T23:33:50.826Z,44.03
2024-03-01T23:36:18.813Z,43.82
2024-03-01T23:38:46.458Z,43.32
2024-03-01T23:41:14.420Z,43.36
2024-03-01T23:43:42.017Z,44.80
2024-03-01T23:46:11.076Z,43.87
2024-03-01T23:48:39.866Z,44.80
2024-03-01T23:51:07.552Z,44.27
2024-03-01T23:53:35.181Z,44.24
2024-03-01T23:56:03.000Z,44.67
2024-03-01T23:58:30.631Z,44.28
